sensor_id;sensor_type;location;lat;lon;timestamp;pressure;altitude;pressure_sealevel;temperature
14666;BMP280;7420;53.574;10.040;2022-12-18T00:00:59;102974.56;;;-5.21
14666;BMP280;7420;53.574;10.040;2022-12-18T00:03:24;102970.28;;;-5.22
14666;BMP280;7420;53.574;10.040;2022-12-18T00:05:50;102974.56;;;-5.21
14666;BMP280;7420;53.574;10.040;2022-12-18T00:08:16;102971.28;;;-5.26
14666;BMP280;7420;53.574;10.040;2022-12-18T00:10:41;102967.97;;;-5.30
14666;BMP280;7420;53.574;10.040;2022-12-18T00:13:07;102962.84;;;-5.31
14666;BMP280;7420;53.574;10.040;2022-12-18T00:15:36;102962.09;;;-5.35
14666;BMP280;7420;53.574;10.040;2022-12-18T00:18:01;102971.75;;;-5.38
14666;BMP280;7420;53.574;10.040;2022-12-18T00:20:27;102976.94;;;-5.38
14666;BMP280;7420;53.574;10.040;2022-12-18T00:22:52;102965.88;;;-5.43
14666;BMP280;7420;53.574;10.040;2022-12-18T00:25:18;102973.66;;;-5.43
14666;BMP280;7420;53.574;10.040;2022-12-18T00:27:43;102976.25;;;-5.43
14666;BMP280;7420;53.574;10.040;2022-12-18T00:30:08;102985.03;;;-5.47
14666;BMP280;7420;53.574;10.040;2022-12-18T00:32:34;102987.66;;;-5.49
14666;BMP280;7420;53.574;10.040;2022-12-18T00:34:59;102989.41;;;-5.49
14666;BMP280;7420;53.574;10.040;2022-12-18T00:37:24;103004.19;;;-5.51
14666;BMP280;7420;53.574;10.040;2022-12-18T00:39:49;103004.28;;;-5.54
14666;BMP280;7420;53.574;10.040;2022-12-18T00:42:15;103002.69;;;-5.58
14666;BMP280;7420;53.574;10.040;2022-12-18T00:44:58;102992.38;;;-5.60
14666;BMP280;7420;53.574;10.040;2022-12-18T00:47:24;102995.09;;;-5.64
14666;BMP280;7420;53.574;10.040;2022-12-18T00:49:52;102988.22;;;-5.65
14666;BMP280;7420;53.574;10.040;2022-12-18T00:52:17;102986.44;;;-5.63
14666;BMP280;7420;53.574;10.040;2022-12-18T00:54:42;102999.41;;;-5.63
14666;BMP280;7420;53.574;10.040;2022-12-18T00:57:07;102998.56;;;-5.64
14666;BMP280;7420;53.574;10.040;2022-12-18T00:59:32;102999.41;;;-5.63
14666;BMP280;7420;53.574;10.040;2022-12-18T01:01:58;102995.34;;;-5.70
14666;BMP280;7420;53.574;10.040;2022-12-18T01:04:23;102989.47;;;-5.75
14666;BMP280;7420;53.574;10.040;2022-12-18T01:06:48;102990.38;;;-5.76
14666;BMP280;7420;53.574;10.040;2022-12-18T01:09:14;102983.56;;;-5.78
14666;BMP280;7420;53.574;10.040;2022-12-18T01:11:39;103010.19;;;-5.75
14666;BMP280;7420;53.574;10.040;2022-12-18T01:14:04;103003.31;;;-5.76
14666;BMP280;7420;53.574;10.040;2022-12-18T01:16:30;103016.59;;;-5.85
14666;BMP280;7420;53.574;10.040;2022-12-18T01:18:55;103006.34;;;-5.88
14666;BMP280;7420;53.574;10.040;2022-12-18T01:21:21;103012.41;;;-5.89
14666;BMP280;7420;53.574;10.040;2022-12-18T01:23:46;103004.72;;;-5.90
14666;BMP280;7420;53.574;10.040;2022-12-18T01:26:15;103002.03;;;-5.89
14666;BMP280;7420;53.574;10.040;2022-12-18T01:28:40;103001.09;;;-5.86
14666;BMP280;7420;53.574;10.040;2022-12-18T01:31:13;103000.31;;;-5.88
14666;BMP280;7420;53.574;10.040;2022-12-18T01:33:39;102993.38;;;-5.88
14666;BMP280;7420;53.574;10.040;2022-12-18T01:36:04;103001.94;;;-5.86
14666;BMP280;7420;53.574;10.040;2022-12-18T01:38:29;102996.78;;;-5.86
14666;BMP280;7420;53.574;10.040;2022-12-18T01:40:58;103010.69;;;-5.88
14666;BMP280;7420;53.574;10.040;2022-12-18T01:43:40;103013.16;;;-5.85
14666;BMP280;7420;53.574;10.040;2022-12-18T01:46:05;103010.72;;;-5.90
14666;BMP280;7420;53.574;10.040;2022-12-18T01:48:30;103016.00;;;-5.93
14666;BMP280;7420;53.574;10.040;2022-12-18T01:50:56;103013.41;;;-5.93
14666;BMP280;7420;53.574;10.040;2022-12-18T01:53:21;103020.38;;;-5.95
14666;BMP280;7420;53.574;10.040;2022-12-18T01:55:51;103016.09;;;-5.96
14666;BMP280;7420;53.574;10.040;2022-12-18T01:58:17;103030.84;;;-5.98
14666;BMP280;7420;53.574;10.040;2022-12-18T02:00:43;103027.31;;;-5.95
14666;BMP280;7420;53.574;10.040;2022-12-18T02:03:08;103025.72;;;-5.99
14666;BMP280;7420;53.574;10.040;2022-12-18T02:08:21;103023.16;;;-6.01
14666;BMP280;7420;53.574;10.040;2022-12-18T02:18:32;103017.25;;;-6.04
14666;BMP280;7420;53.574;10.040;2022-12-18T02:23:54;103017.25;;;-6.04
14666;BMP280;7420;53.574;10.040;2022-12-18T02:26:34;103026.75;;;-6.05
14666;BMP280;7420;53.574;10.040;2022-12-18T02:29:11;103028.44;;;-6.04
14666;BMP280;7420;53.574;10.040;2022-12-18T02:32:39;103033.44;;;-5.98
14666;BMP280;7420;53.574;10.040;2022-12-18T02:34:33;103043.94;;;-6.02
14666;BMP280;7420;53.574;10.040;2022-12-18T02:37:00;103044.75;;;-6.00
14666;BMP280;7420;53.574;10.040;2022-12-18T02:39:28;103048.97;;;-5.98
14666;BMP280;7420;53.574;10.040;2022-12-18T02:41:54;103044.06;;;-6.07
14666;BMP280;7420;53.574;10.040;2022-12-18T02:44:20;103046.66;;;-6.07
14666;BMP280;7420;53.574;10.040;2022-12-18T02:46:46;103042.19;;;-6.02
14666;BMP280;7420;53.574;10.040;2022-12-18T02:49:20;103035.63;;;-5.86
14666;BMP280;7420;53.574;10.040;2022-12-18T02:51:53;103047.38;;;-6.02
14666;BMP280;7420;53.574;10.040;2022-12-18T02:54:22;103048.59;;;-6.13
14666;BMP280;7420;53.574;10.040;2022-12-18T02:56:50;103047.53;;;-6.06
14666;BMP280;7420;53.574;10.040;2022-12-18T02:59:21;103049.56;;;-6.16
14666;BMP280;7420;53.574;10.040;2022-12-18T03:04:22;103058.03;;;-6.11
14666;BMP280;7420;53.574;10.040;2022-12-18T03:06:50;103048.03;;;-6.23
14666;BMP280;7420;53.574;10.040;2022-12-18T03:09:19;103054.91;;;-6.22
14666;BMP280;7420;53.574;10.040;2022-12-18T03:11:48;103057.34;;;-6.17
14666;BMP280;7420;53.574;10.040;2022-12-18T03:14:35;103054.03;;;-6.21
14666;BMP280;7420;53.574;10.040;2022-12-18T03:17:03;103050.47;;;-6.18
14666;BMP280;7420;53.574;10.040;2022-12-18T03:19:31;103052.00;;;-6.11
14666;BMP280;7420;53.574;10.040;2022-12-18T03:21:57;103053.06;;;-6.18
14666;BMP280;7420;53.574;10.040;2022-12-18T03:24:24;103045.50;;;-6.24
14666;BMP280;7420;53.574;10.040;2022-12-18T03:26:52;103044.00;;;-6.31
14666;BMP280;7420;53.574;10.040;2022-12-18T03:29:21;103047.97;;;-6.20
14666;BMP280;7420;53.574;10.040;2022-12-18T03:31:48;103060.19;;;-6.25
14666;BMP280;7420;53.574;10.040;2022-12-18T03:34:15;103058.22;;;-6.17
14666;BMP280;7420;53.574;10.040;2022-12-18T03:36:42;103055.91;;;-6.26
14666;BMP280;7420;53.574;10.040;2022-12-18T03:39:08;103056.81;;;-6.27
14666;BMP280;7420;53.574;10.040;2022-12-18T03:41:36;103053.59;;;-6.35
14666;BMP280;7420;53.574;10.040;2022-12-18T03:46:49;103053.66;;;-6.36
14666;BMP280;7420;53.574;10.040;2022-12-18T03:49:25;103056.25;;;-6.38
14666;BMP280;7420;53.574;10.040;2022-12-18T03:51:54;103054.44;;;-6.34
14666;BMP280;7420;53.574;10.040;2022-12-18T03:54:19;103046.09;;;-6.44
14666;BMP280;7420;53.574;10.040;2022-12-18T03:56:47;103040.03;;;-6.43
14666;BMP280;7420;53.574;10.040;2022-12-18T03:59:13;103047.84;;;-6.44
14666;BMP280;7420;53.574;10.040;2022-12-18T04:01:41;103047.78;;;-6.43
14666;BMP280;7420;53.574;10.040;2022-12-18T04:04:08;103051.41;;;-6.48
14666;BMP280;7420;53.574;10.040;2022-12-18T04:06:34;103054.97;;;-6.52
14666;BMP280;7420;53.574;10.040;2022-12-18T04:09:00;103052.28;;;-6.48
14666;BMP280;7420;53.574;10.040;2022-12-18T04:11:25;103041.22;;;-6.53
14666;BMP280;7420;53.574;10.040;2022-12-18T04:13:52;103051.16;;;-6.39
14666;BMP280;7420;53.574;10.040;2022-12-18T04:16:20;103053.34;;;-6.55
14666;BMP280;7420;53.574;10.040;2022-12-18T04:18:45;103052.31;;;-6.49
14666;BMP280;7420;53.574;10.040;2022-12-18T04:21:10;103056.03;;;-6.58
14666;BMP280;7420;53.574;10.040;2022-12-18T04:23:35;103053.53;;;-6.62
14666;BMP280;7420;53.574;10.040;2022-12-18T04:26:01;103054.34;;;-6.60
14666;BMP280;7420;53.574;10.040;2022-12-18T04:28:26;103057.88;;;-6.63
14666;BMP280;7420;53.574;10.040;2022-12-18T04:30:51;103054.50;;;-6.65
14666;BMP280;7420;53.574;10.040;2022-12-18T04:33:17;103050.22;;;-6.66
14666;BMP280;7420;53.574;10.040;2022-12-18T04:35:42;103061.50;;;-6.68
14666;BMP280;7420;53.574;10.040;2022-12-18T04:38:08;103051.25;;;-6.71
14666;BMP280;7420;53.574;10.040;2022-12-18T04:40:35;103054.66;;;-6.71
14666;BMP280;7420;53.574;10.040;2022-12-18T04:43:00;103055.06;;;-6.55
14666;BMP280;7420;53.574;10.040;2022-12-18T04:45:25;103049.81;;;-6.52
14666;BMP280;7420;53.574;10.040;2022-12-18T04:47:51;103046.91;;;-6.71
14666;BMP280;7420;53.574;10.040;2022-12-18T04:50:16;103051.72;;;-6.59
14666;BMP280;7420;53.574;10.040;2022-12-18T04:52:41;103049.81;;;-6.52
14666;BMP280;7420;53.574;10.040;2022-12-18T04:55:07;103051.41;;;-6.48
14666;BMP280;7420;53.574;10.040;2022-12-18T04:57:32;103060.63;;;-6.40
14666;BMP280;7420;53.574;10.040;2022-12-18T04:59:57;103063.53;;;-6.49
14666;BMP280;7420;53.574;10.040;2022-12-18T05:02:23;103066.22;;;-6.53
14666;BMP280;7420;53.574;10.040;2022-12-18T05:04:48;103065.41;;;-6.55
14666;BMP280;7420;53.574;10.040;2022-12-18T05:07:13;103071.31;;;-6.50
14666;BMP280;7420;53.574;10.040;2022-12-18T05:09:38;103077.47;;;-6.54
14666;BMP280;7420;53.574;10.040;2022-12-18T05:12:04;103079.63;;;-6.68
14666;BMP280;7420;53.574;10.040;2022-12-18T05:14:29;103080.63;;;-6.74
14666;BMP280;7420;53.574;10.040;2022-12-18T05:16:54;103081.97;;;-6.61
14666;BMP280;7420;53.574;10.040;2022-12-18T05:19:20;103083.50;;;-6.54
14666;BMP280;7420;53.574;10.040;2022-12-18T05:21:45;103082.97;;;-6.65
14666;BMP280;7420;53.574;10.040;2022-12-18T05:24:10;103086.84;;;-6.50
14666;BMP280;7420;53.574;10.040;2022-12-18T05:26:36;103087.16;;;-6.61
14666;BMP280;7420;53.574;10.040;2022-12-18T05:29:01;103090.56;;;-6.59
14666;BMP280;7420;53.574;10.040;2022-12-18T05:31:27;103078.50;;;-6.60
14666;BMP280;7420;53.574;10.040;2022-12-18T05:33:52;103080.13;;;-6.56
14666;BMP280;7420;53.574;10.040;2022-12-18T05:36:17;103081.13;;;-6.61
14666;BMP280;7420;53.574;10.040;2022-12-18T05:38:43;103093.00;;;-6.54
14666;BMP280;7420;53.574;10.040;2022-12-18T05:41:08;103092.00;;;-6.49
14666;BMP280;7420;53.574;10.040;2022-12-18T05:43:34;103097.34;;;-6.55
14666;BMP280;7420;53.574;10.040;2022-12-18T05:46:07;103106.00;;;-6.56
14666;BMP280;7420;53.574;10.040;2022-12-18T05:48:33;103106.91;;;-6.58
14666;BMP280;7420;53.574;10.040;2022-12-18T05:51:03;103102.78;;;-6.65
14666;BMP280;7420;53.574;10.040;2022-12-18T05:53:29;103099.28;;;-6.63
14666;BMP280;7420;53.574;10.040;2022-12-18T05:55:54;103100.09;;;-6.61
14666;BMP280;7420;53.574;10.040;2022-12-18T05:58:19;103108.75;;;-6.62
14666;BMP280;7420;53.574;10.040;2022-12-18T06:00:45;103099.22;;;-6.60
14666;BMP280;7420;53.574;10.040;2022-12-18T06:03:11;103098.09;;;-6.81
14666;BMP280;7420;53.574;10.040;2022-12-18T06:05:37;103089.63;;;-6.86
14666;BMP280;7420;53.574;10.040;2022-12-18T06:08:02;103092.09;;;-6.83
14666;BMP280;7420;53.574;10.040;2022-12-18T06:10:28;103099.84;;;-6.82
14666;BMP280;7420;53.574;10.040;2022-12-18T06:12:53;103098.50;;;-6.66
14666;BMP280;7420;53.574;10.040;2022-12-18T06:15:18;103112.22;;;-6.63
14666;BMP280;7420;53.574;10.040;2022-12-18T06:17:43;103117.00;;;-6.79
14666;BMP280;7420;53.574;10.040;2022-12-18T06:20:09;103113.81;;;-6.87
14666;BMP280;7420;53.574;10.040;2022-12-18T06:22:34;103120.41;;;-6.78
14666;BMP280;7420;53.574;10.040;2022-12-18T06:25:00;103107.53;;;-6.79
14666;BMP280;7420;53.574;10.040;2022-12-18T06:27:25;103111.16;;;-6.86
14666;BMP280;7420;53.574;10.040;2022-12-18T06:29:50;103115.31;;;-6.80
14666;BMP280;7420;53.574;10.040;2022-12-18T06:32:15;103120.69;;;-6.86
14666;BMP280;7420;53.574;10.040;2022-12-18T06:34:41;103129.94;;;-6.79
14666;BMP280;7420;53.574;10.040;2022-12-18T06:37:06;103133.72;;;-6.91
14666;BMP280;7420;53.574;10.040;2022-12-18T06:39:32;103128.03;;;-7.03
14666;BMP280;7420;53.574;10.040;2022-12-18T06:41:57;103133.78;;;-6.94
14666;BMP280;7420;53.574;10.040;2022-12-18T06:44:22;103131.38;;;-7.00
14666;BMP280;7420;53.574;10.040;2022-12-18T06:46:47;103122.78;;;-7.00
14666;BMP280;7420;53.574;10.040;2022-12-18T06:49:13;103126.75;;;-6.87
14666;BMP280;7420;53.574;10.040;2022-12-18T06:51:38;103132.50;;;-7.10
14666;BMP280;7420;53.574;10.040;2022-12-18T06:54:03;103135.13;;;-7.11
14666;BMP280;7420;53.574;10.040;2022-12-18T06:56:28;103135.13;;;-7.11
14666;BMP280;7420;53.574;10.040;2022-12-18T06:58:54;103130.91;;;-7.15
14666;BMP280;7420;53.574;10.040;2022-12-18T07:01:20;103131.00;;;-7.18
14666;BMP280;7420;53.574;10.040;2022-12-18T07:03:45;103127.16;;;-7.04
14666;BMP280;7420;53.574;10.040;2022-12-18T07:06:15;103134.38;;;-7.16
14666;BMP280;7420;53.574;10.040;2022-12-18T07:08:41;103124.63;;;-7.05
14666;BMP280;7420;53.574;10.040;2022-12-18T07:11:06;103124.19;;;-7.22
14666;BMP280;7420;53.574;10.040;2022-12-18T07:13:31;103126.59;;;-7.15
14666;BMP280;7420;53.574;10.040;2022-12-18T07:16:03;103139.63;;;-7.19
14666;BMP280;7420;53.574;10.040;2022-12-18T07:18:28;103141.91;;;-7.07
14666;BMP280;7420;53.574;10.040;2022-12-18T07:20:53;103144.63;;;-7.12
14666;BMP280;7420;53.574;10.040;2022-12-18T07:23:18;103141.69;;;-6.98
14666;BMP280;7420;53.574;10.040;2022-12-18T07:25:43;103141.84;;;-7.04
14666;BMP280;7420;53.574;10.040;2022-12-18T07:28:09;103152.19;;;-7.04
14666;BMP280;7420;53.574;10.040;2022-12-18T07:30:36;103155.28;;;-6.92
14666;BMP280;7420;53.574;10.040;2022-12-18T07:33:01;103151.00;;;-6.93
14666;BMP280;7420;53.574;10.040;2022-12-18T07:35:29;103159.81;;;-7.00
14666;BMP280;7420;53.574;10.040;2022-12-18T07:37:54;103159.19;;;-7.09
14666;BMP280;7420;53.574;10.040;2022-12-18T07:40:20;103158.16;;;-7.02
14666;BMP280;7420;53.574;10.040;2022-12-18T07:42:45;103160.59;;;-6.96
14666;BMP280;7420;53.574;10.040;2022-12-18T07:45:10;103161.44;;;-6.96
14666;BMP280;7420;53.574;10.040;2022-12-18T07:47:35;103167.66;;;-7.03
14666;BMP280;7420;53.574;10.040;2022-12-18T07:50:01;103167.78;;;-7.07
14666;BMP280;7420;53.574;10.040;2022-12-18T07:52:27;103177.97;;;-7.01
14666;BMP280;7420;53.574;10.040;2022-12-18T07:54:52;103175.25;;;-6.97
14666;BMP280;7420;53.574;10.040;2022-12-18T07:57:17;103171.25;;;-7.08
14666;BMP280;7420;53.574;10.040;2022-12-18T07:59:43;103185.06;;;-7.09
14666;BMP280;7420;53.574;10.040;2022-12-18T08:02:08;103179.97;;;-7.12
14666;BMP280;7420;53.574;10.040;2022-12-18T08:04:34;103179.66;;;-7.00
14666;BMP280;7420;53.574;10.040;2022-12-18T08:07:00;103181.53;;;-7.05
14666;BMP280;7420;53.574;10.040;2022-12-18T08:09:25;103186.63;;;-7.04
14666;BMP280;7420;53.574;10.040;2022-12-18T08:11:50;103175.31;;;-7.00
14666;BMP280;7420;53.574;10.040;2022-12-18T08:14:15;103170.88;;;-6.95
14666;BMP280;7420;53.574;10.040;2022-12-18T08:16:41;103163.19;;;-6.96
14666;BMP280;7420;53.574;10.040;2022-12-18T08:19:06;103157.03;;;-6.92
14666;BMP280;7420;53.574;10.040;2022-12-18T08:21:31;103155.94;;;-6.84
14666;BMP280;7420;53.574;10.040;2022-12-18T08:23:58;103161.19;;;-6.87
14666;BMP280;7420;53.574;10.040;2022-12-18T08:26:24;103169.63;;;-6.79
14666;BMP280;7420;53.574;10.040;2022-12-18T08:28:50;103161.88;;;-6.80
14666;BMP280;7420;53.574;10.040;2022-12-18T08:31:15;103167.94;;;-6.81
14666;BMP280;7420;53.574;10.040;2022-12-18T08:33:41;103162.97;;;-6.87
14666;BMP280;7420;53.574;10.040;2022-12-18T08:36:07;103156.84;;;-6.85
14666;BMP280;7420;53.574;10.040;2022-12-18T08:38:33;103150.69;;;-6.81
14666;BMP280;7420;53.574;10.040;2022-12-18T08:41:01;103154.94;;;-6.78
14666;BMP280;7420;53.574;10.040;2022-12-18T08:43:27;103156.38;;;-6.67
14666;BMP280;7420;53.574;10.040;2022-12-18T08:46:11;103181.06;;;-6.57
14666;BMP280;7420;53.574;10.040;2022-12-18T08:48:36;103165.53;;;-6.56
14666;BMP280;7420;53.574;10.040;2022-12-18T08:51:02;103161.00;;;-6.48
14666;BMP280;7420;53.574;10.040;2022-12-18T08:53:27;103163.22;;;-6.36
14666;BMP280;7420;53.574;10.040;2022-12-18T08:55:52;103160.72;;;-6.39
14666;BMP280;7420;53.574;10.040;2022-12-18T08:58:18;103156.41;;;-6.38
14666;BMP280;7420;53.574;10.040;2022-12-18T09:00:43;103156.31;;;-6.35
14666;BMP280;7420;53.574;10.040;2022-12-18T09:03:15;103153.66;;;-6.34
14666;BMP280;7420;53.574;10.040;2022-12-18T09:05:41;103154.44;;;-6.30
14666;BMP280;7420;53.574;10.040;2022-12-18T09:08:06;103160.28;;;-6.24
14666;BMP280;7420;53.574;10.040;2022-12-18T09:10:32;103167.81;;;-6.16
14666;BMP280;7420;53.574;10.040;2022-12-18T09:12:57;103164.16;;;-6.08
14666;BMP280;7420;53.574;10.040;2022-12-18T09:15:22;103164.00;;;-6.03
14666;BMP280;7420;53.574;10.040;2022-12-18T09:17:47;103170.81;;;-6.01
14666;BMP280;7420;53.574;10.040;2022-12-18T09:20:14;103162.31;;;-6.06
14666;BMP280;7420;53.574;10.040;2022-12-18T09:22:40;103155.72;;;-5.87
14666;BMP280;7420;53.574;10.040;2022-12-18T09:25:05;103163.03;;;-5.73
14666;BMP280;7420;53.574;10.040;2022-12-18T09:27:33;103158.31;;;-5.61
14666;BMP280;7420;53.574;10.040;2022-12-18T09:29:58;103161.63;;;-5.56
14666;BMP280;7420;53.574;10.040;2022-12-18T09:32:23;103166.78;;;-5.56
14666;BMP280;7420;53.574;10.040;2022-12-18T09:34:48;103158.13;;;-5.55
14666;BMP280;7420;53.574;10.040;2022-12-18T09:37:14;103156.16;;;-5.49
14666;BMP280;7420;53.574;10.040;2022-12-18T09:39:39;103167.97;;;-5.39
14666;BMP280;7420;53.574;10.040;2022-12-18T09:42:04;103165.56;;;-5.19
14666;BMP280;7420;53.574;10.040;2022-12-18T09:47:07;103154.03;;;-5.10
14666;BMP280;7420;53.574;10.040;2022-12-18T09:49:36;103159.88;;;-5.04
14666;BMP280;7420;53.574;10.040;2022-12-18T09:54:40;103154.09;;;-4.87
14666;BMP280;7420;53.574;10.040;2022-12-18T09:57:05;103163.53;;;-4.85
14666;BMP280;7420;53.574;10.040;2022-12-18T09:59:35;103166.63;;;-4.74
14666;BMP280;7420;53.574;10.040;2022-12-18T10:02:18;103165.56;;;-4.68
14666;BMP280;7420;53.574;10.040;2022-12-18T10:04:44;103173.03;;;-4.59
14666;BMP280;7420;53.574;10.040;2022-12-18T10:07:19;103163.94;;;-4.48
14666;BMP280;7420;53.574;10.040;2022-12-18T10:09:49;103160.25;;;-4.41
14666;BMP280;7420;53.574;10.040;2022-12-18T10:14:56;103155.88;;;-4.41
14666;BMP280;7420;53.574;10.040;2022-12-18T10:17:26;103153.84;;;-4.33
14666;BMP280;7420;53.574;10.040;2022-12-18T10:20:16;103153.66;;;-4.28
14666;BMP280;7420;53.574;10.040;2022-12-18T10:25:22;103161.25;;;-4.22
14666;BMP280;7420;53.574;10.040;2022-12-18T10:27:47;103167.06;;;-4.39
14666;BMP280;7420;53.574;10.040;2022-12-18T10:30:18;103172.66;;;-4.03
14666;BMP280;7420;53.574;10.040;2022-12-18T10:32:43;103172.66;;;-4.03
14666;BMP280;7420;53.574;10.040;2022-12-18T10:35:26;103168.44;;;-3.84
14666;BMP280;7420;53.574;10.040;2022-12-18T10:37:59;103169.72;;;-3.51
14666;BMP280;7420;53.574;10.040;2022-12-18T10:40:24;103177.28;;;-3.67
14666;BMP280;7420;53.574;10.040;2022-12-18T10:43:03;103174.00;;;-3.72
14666;BMP280;7420;53.574;10.040;2022-12-18T10:45:29;103179.22;;;-3.72
14666;BMP280;7420;53.574;10.040;2022-12-18T10:47:54;103161.28;;;-3.35
14666;BMP280;7420;53.574;10.040;2022-12-18T10:52:45;103158.53;;;-3.32
14666;BMP280;7420;53.574;10.040;2022-12-18T10:55:17;103162.88;;;-3.11
14666;BMP280;7420;53.574;10.040;2022-12-18T10:57:43;103159.88;;;-3.02
14666;BMP280;7420;53.574;10.040;2022-12-18T11:02:53;103135.44;;;-2.60
14666;BMP280;7420;53.574;10.040;2022-12-18T11:05:29;103133.88;;;-2.64
14666;BMP280;7420;53.574;10.040;2022-12-18T11:07:54;103136.44;;;-2.62
14666;BMP280;7420;53.574;10.040;2022-12-18T11:10:22;103139.41;;;-2.51
14666;BMP280;7420;53.574;10.040;2022-12-18T11:12:47;103150.88;;;-2.17
14666;BMP280;7420;53.574;10.040;2022-12-18T11:15:15;103137.91;;;-2.00
14666;BMP280;7420;53.574;10.040;2022-12-18T11:17:40;103142.81;;;-1.76
14666;BMP280;7420;53.574;10.040;2022-12-18T11:20:09;103138.22;;;-1.71
14666;BMP280;7420;53.574;10.040;2022-12-18T11:22:43;103145.09;;;-2.05
14666;BMP280;7420;53.574;10.040;2022-12-18T11:25:19;103147.41;;;-1.81
14666;BMP280;7420;53.574;10.040;2022-12-18T11:27:58;103144.88;;;-1.82
14666;BMP280;7420;53.574;10.040;2022-12-18T11:32:55;103116.59;;;-2.46
14666;BMP280;7420;53.574;10.040;2022-12-18T11:35:28;103122.59;;;-2.44
14666;BMP280;7420;53.574;10.040;2022-12-18T11:37:59;103114.69;;;-2.81
14666;BMP280;7420;53.574;10.040;2022-12-18T11:40:33;103123.34;;;-2.61
14666;BMP280;7420;53.574;10.040;2022-12-18T11:45:41;103117.03;;;-1.82
14666;BMP280;7420;53.574;10.040;2022-12-18T11:48:18;103119.75;;;-1.14
14666;BMP280;7420;53.574;10.040;2022-12-18T11:50:53;103106.88;;;-0.04
14666;BMP280;7420;53.574;10.040;2022-12-18T11:53:19;103114.31;;;0.63
14666;BMP280;7420;53.574;10.040;2022-12-18T11:58:28;103107.63;;;1.58
14666;BMP280;7420;53.574;10.040;2022-12-18T12:06:28;103069.03;;;0.91
14666;BMP280;7420;53.574;10.040;2022-12-18T12:11:50;103063.69;;;0.19
14666;BMP280;7420;53.574;10.040;2022-12-18T12:17:08;103055.94;;;-0.28
14666;BMP280;7420;53.574;10.040;2022-12-18T12:19:43;103060.59;;;-0.98
14666;BMP280;7420;53.574;10.040;2022-12-18T12:24:49;103056.31;;;-2.02
14666;BMP280;7420;53.574;10.040;2022-12-18T12:39:55;103013.19;;;-1.40
14666;BMP280;7420;53.574;10.040;2022-12-18T12:42:27;103020.59;;;-2.00
14666;BMP280;7420;53.574;10.040;2022-12-18T12:45:19;103018.53;;;1.30
14666;BMP280;7420;53.574;10.040;2022-12-18T12:47:45;102990.97;;;9.59
14666;BMP280;7420;53.574;10.040;2022-12-18T12:50:14;102977.34;;;14.33
14666;BMP280;7420;53.574;10.040;2022-12-18T12:52:44;102988.56;;;5.99
14666;BMP280;7420;53.574;10.040;2022-12-18T12:55:15;102996.75;;;3.60
14666;BMP280;7420;53.574;10.040;2022-12-18T12:57:42;102986.75;;;2.54
14666;BMP280;7420;53.574;10.040;2022-12-18T13:00:11;102996.75;;;0.15
14666;BMP280;7420;53.574;10.040;2022-12-18T13:07:49;102995.34;;;-1.32
14666;BMP280;7420;53.574;10.040;2022-12-18T13:12:53;102984.22;;;0.20
14666;BMP280;7420;53.574;10.040;2022-12-18T13:15:27;102987.59;;;0.38
14666;BMP280;7420;53.574;10.040;2022-12-18T13:18:05;102991.44;;;1.58
14666;BMP280;7420;53.574;10.040;2022-12-18T13:30:59;102988.63;;;-1.53
14666;BMP280;7420;53.574;10.040;2022-12-18T13:38:32;102984.91;;;-2.17
14666;BMP280;7420;53.574;10.040;2022-12-18T13:40:58;102984.06;;;-2.17
14666;BMP280;7420;53.574;10.040;2022-12-18T13:43:26;102976.16;;;-2.16
14666;BMP280;7420;53.574;10.040;2022-12-18T13:45:59;102981.81;;;-2.25
14666;BMP280;7420;53.574;10.040;2022-12-18T13:48:26;102986.28;;;-2.10
14666;BMP280;7420;53.574;10.040;2022-12-18T13:51:02;102989.31;;;-2.00
14666;BMP280;7420;53.574;10.040;2022-12-18T13:53:48;102983.22;;;-2.18
14666;BMP280;7420;53.574;10.040;2022-12-18T13:56:15;103004.66;;;-2.66
14666;BMP280;7420;53.574;10.040;2022-12-18T13:58:40;103000.09;;;-2.61
14666;BMP280;7420;53.574;10.040;2022-12-18T14:01:15;103001.84;;;-2.62
14666;BMP280;7420;53.574;10.040;2022-12-18T14:03:45;103007.59;;;-2.74
14666;BMP280;7420;53.574;10.040;2022-12-18T14:06:11;102990.84;;;-2.87
14666;BMP280;7420;53.574;10.040;2022-12-18T14:08:40;102992.25;;;-2.98
14666;BMP280;7420;53.574;10.040;2022-12-18T14:11:06;102986.47;;;-2.86
14666;BMP280;7420;53.574;10.040;2022-12-18T14:13:33;102994.16;;;-2.83
14666;BMP280;7420;53.574;10.040;2022-12-18T14:16:00;102994.22;;;-3.03
14666;BMP280;7420;53.574;10.040;2022-12-18T14:18:33;102991.94;;;-3.11
14666;BMP280;7420;53.574;10.040;2022-12-18T14:20:59;102984.34;;;-3.15
14666;BMP280;7420;53.574;10.040;2022-12-18T14:23:27;102989.53;;;-3.15
14666;BMP280;7420;53.574;10.040;2022-12-18T14:25:53;102986.28;;;-3.20
14666;BMP280;7420;53.574;10.040;2022-12-18T14:28:18;102986.75;;;-3.31
14666;BMP280;7420;53.574;10.040;2022-12-18T14:30:44;102988.25;;;-3.25
14666;BMP280;7420;53.574;10.040;2022-12-18T14:33:17;102980.88;;;-3.34
14666;BMP280;7420;53.574;10.040;2022-12-18T14:36:01;102970.81;;;-3.23
14666;BMP280;7420;53.574;10.040;2022-12-18T14:38:34;102963.97;;;-3.44
14666;BMP280;7420;53.574;10.040;2022-12-18T14:41:01;102978.56;;;-3.42
14666;BMP280;7420;53.574;10.040;2022-12-18T14:43:27;102976.84;;;-3.41
14666;BMP280;7420;53.574;10.040;2022-12-18T14:45:53;102975.56;;;-3.52
14666;BMP280;7420;53.574;10.040;2022-12-18T14:48:19;102977.44;;;-3.54
14666;BMP280;7420;53.574;10.040;2022-12-18T14:50:45;102973.31;;;-3.60
14666;BMP280;7420;53.574;10.040;2022-12-18T14:53:20;102973.91;;;-3.53
14666;BMP280;7420;53.574;10.040;2022-12-18T14:55:46;102967.97;;;-3.57
14666;BMP280;7420;53.574;10.040;2022-12-18T14:58:11;102963.03;;;-3.63
14666;BMP280;7420;53.574;10.040;2022-12-18T15:00:40;102957.19;;;-3.68
14666;BMP280;7420;53.574;10.040;2022-12-18T15:03:06;102951.19;;;-3.70
14666;BMP280;7420;53.574;10.040;2022-12-18T15:05:32;102940.00;;;-3.72
14666;BMP280;7420;53.574;10.040;2022-12-18T15:07:58;102928.88;;;-3.74
14666;BMP280;7420;53.574;10.040;2022-12-18T15:10:28;102928.09;;;-3.76
14666;BMP280;7420;53.574;10.040;2022-12-18T15:20:31;102917.81;;;-3.79
14666;BMP280;7420;53.574;10.040;2022-12-18T15:22:57;102912.75;;;-3.82
14666;BMP280;7420;53.574;10.040;2022-12-18T15:25:34;102911.75;;;-3.79
14666;BMP280;7420;53.574;10.040;2022-12-18T15:28:01;102904.88;;;-3.80
14666;BMP280;7420;53.574;10.040;2022-12-18T15:30:27;102904.09;;;-3.82
14666;BMP280;7420;53.574;10.040;2022-12-18T15:32:52;102896.25;;;-3.81
14666;BMP280;7420;53.574;10.040;2022-12-18T15:35:37;102900.41;;;-3.77
14666;BMP280;7420;53.574;10.040;2022-12-18T15:38:03;102907.41;;;-3.79